createdAt,value
2023-04-17T00:00:36.070Z,604.90
2023-04-17T00:01:36.054Z,609.30
2023-04-17T00:02:36.193Z,323.30
2023-04-17T00:03:36.209Z,448.60
2023-04-17T00:04:36.166Z,448.70
2023-04-17T00:05:36.011Z,540.30
2023-04-17T00:06:36.026Z,578.70
2023-04-17T00:07:36.023Z,327.60
2023-04-17T00:08:35.977Z,291.90
2023-04-17T00:09:35.976Z,750.90
2023-04-17T00:10:36.043Z,636.40
2023-04-17T00:11:35.946Z,611.20
2023-04-17T00:12:35.966Z,612.20
2023-04-17T00:13:35.920Z,615.10
2023-04-17T00:14:35.927Z,626.30
2023-04-17T00:15:35.886Z,605.70
2023-04-17T00:16:35.907Z,612.00
2023-04-17T00:17:35.925Z,606.60
2023-04-17T00:18:35.865Z,608.40
2023-04-17T00:19:35.843Z,612.90
2023-04-17T00:20:35.831Z,644.20
2023-04-17T00:21:35.829Z,612.20
2023-04-17T00:22:35.853Z,614.70
2023-04-17T00:23:35.813Z,608.30
2023-04-17T00:24:35.778Z,620.50
2023-04-17T00:25:35.773Z,636.10
2023-04-17T00:26:35.772Z,618.20
2023-04-17T00:27:35.804Z,620.30
2023-04-17T00:28:35.728Z,615.70
2023-04-17T00:29:35.743Z,621.90
2023-04-17T00:30:35.706Z,613.50
2023-04-17T00:31:35.743Z,605.50
2023-04-17T00:32:35.763Z,612.90
2023-04-17T00:33:35.675Z,610.40
2023-04-17T00:34:35.682Z,609.50
2023-04-17T00:35:35.662Z,611.70
2023-04-17T00:36:35.657Z,606.90
2023-04-17T00:37:35.673Z,574.60
2023-04-17T00:38:35.624Z,605.50
2023-04-17T00:39:35.612Z,577.10
2023-04-17T00:40:35.594Z,588.00
2023-04-17T00:41:35.642Z,598.40
2023-04-17T00:42:35.613Z,600.30
2023-04-17T00:43:35.580Z,600.80
2023-04-17T00:44:35.555Z,587.70
2023-04-17T00:45:35.657Z,613.70
2023-04-17T00:46:35.531Z,630.40
2023-04-17T00:47:35.606Z,615.00
2023-04-17T00:48:35.574Z,589.10
2023-04-17T00:49:35.509Z,624.50
2023-04-17T00:50:35.520Z,588.80
2023-04-17T00:51:35.462Z,603.90
2023-04-17T00:52:35.515Z,593.30
2023-04-17T00:53:35.460Z,629.80
2023-04-17T00:54:35.457Z,635.40
2023-04-17T00:55:35.440Z,630.10
2023-04-17T00:56:35.399Z,633.00
2023-04-17T00:57:35.456Z,642.10
2023-04-17T00:58:35.410Z,641.20
2023-04-17T00:59:35.371Z,632.80
2023-04-17T01:00:35.375Z,622.70
2023-04-17T01:01:35.411Z,641.90
2023-04-17T01:02:35.515Z,630.60
2023-04-17T01:03:35.600Z,623.90
2023-04-17T01:04:35.336Z,669.80
2023-04-17T01:05:35.320Z,653.80
2023-04-17T01:06:35.303Z,623.70
2023-04-17T01:07:35.326Z,616.10
2023-04-17T01:08:35.270Z,619.40
2023-04-17T01:09:35.279Z,632.60
2023-04-17T01:10:35.243Z,626.50
2023-04-17T01:11:35.242Z,631.20
2023-04-17T01:12:35.317Z,634.30
2023-04-17T01:13:35.228Z,607.40
2023-04-17T01:14:35.208Z,578.20
2023-04-17T01:15:35.199Z,579.40
2023-04-17T01:16:35.205Z,570.00
2023-04-17T01:17:35.224Z,552.60
2023-04-17T01:18:35.191Z,508.60
2023-04-17T01:19:35.160Z,342.30
2023-04-17T01:20:35.146Z,323.40
2023-04-17T01:21:35.117Z,359.70
2023-04-17T01:22:35.166Z,551.40
2023-04-17T01:23:35.103Z,606.90
2023-04-17T01:24:35.090Z,600.00
2023-04-17T01:25:35.082Z,586.70
2023-04-17T01:26:35.079Z,584.60
2023-04-17T01:27:35.110Z,593.30
2023-04-17T01:28:35.057Z,581.60
2023-04-17T01:29:35.034Z,333.90
2023-04-17T01:30:35.036Z,601.50
2023-04-17T01:31:35.007Z,638.20
2023-04-17T01:32:35.062Z,581.80
2023-04-17T01:33:35.027Z,637.10
2023-04-17T01:34:37.206Z,571.30
2023-04-17T01:35:34.974Z,609.50
2023-04-17T01:36:34.978Z,567.50
2023-04-17T01:37:34.945Z,582.90
2023-04-17T01:38:34.997Z,354.20
2023-04-17T01:39:34.942Z,403.00
2023-04-17T01:40:34.910Z,358.40
2023-04-17T01:41:34.896Z,474.30
2023-04-17T01:42:34.894Z,349.40
2023-04-17T01:43:34.912Z,894.20
2023-04-17T01:44:34.851Z,841.00
2023-04-17T01:45:34.861Z,668.80
2023-04-17T01:46:34.851Z,627.30
2023-04-17T01:47:34.858Z,648.50
2023-04-17T01:48:34.876Z,580.50
2023-04-17T01:49:34.803Z,556.30
2023-04-17T01:50:34.803Z,615.40
2023-04-17T01:51:34.787Z,585.70
2023-04-17T01:52:34.776Z,616.20
2023-04-17T01:53:34.810Z,577.10
2023-04-17T01:54:34.754Z,596.20
2023-04-17T01:55:34.737Z,650.30
2023-04-17T01:56:34.751Z,624.40
2023-04-17T01:57:34.792Z,605.60
2023-04-17T01:58:34.750Z,600.10
2023-04-17T01:59:34.701Z,609.60
2023-04-17T02:00:34.697Z,622.60
2023-04-17T02:01:34.755Z,615.80
2023-04-17T02:02:34.736Z,611.80
2023-04-17T02:03:34.893Z,613.70
2023-04-17T02:04:34.701Z,612.40
2023-04-17T02:05:34.633Z,594.30
2023-04-17T02:06:34.615Z,603.00
2023-04-17T02:07:34.593Z,292.00
2023-04-17T02:08:34.660Z,342.60
2023-04-17T02:09:34.604Z,370.30
2023-04-17T02:10:34.577Z,539.60
2023-04-17T02:11:34.562Z,588.70
2023-04-17T02:12:34.546Z,564.00
2023-04-17T02:13:34.582Z,573.90
2023-04-17T02:14:34.531Z,284.40
2023-04-17T02:15:34.545Z,460.50
2023-04-17T02:16:34.623Z,607.90
2023-04-17T02:17:34.553Z,582.00
2023-04-17T02:18:34.497Z,604.60
2023-04-17T02:19:34.471Z,579.40
2023-04-17T02:20:34.484Z,629.70
2023-04-17T02:21:34.459Z,598.50
2023-04-17T02:22:34.427Z,581.40
2023-04-17T02:23:34.460Z,612.20
2023-04-17T02:24:34.409Z,592.00
2023-04-17T02:25:34.421Z,627.10
2023-04-17T02:26:34.462Z,590.50
2023-04-17T02:27:34.388Z,573.40
2023-04-17T02:28:34.407Z,561.90
2023-04-17T02:29:34.359Z,521.20
2023-04-17T02:30:34.354Z,495.30
2023-04-17T02:31:34.366Z,350.40
2023-04-17T02:32:34.368Z,583.70
2023-04-17T02:33:34.341Z,635.60
2023-04-17T02:34:34.289Z,561.30
2023-04-17T02:35:34.274Z,512.40
2023-04-17T02:36:34.274Z,326.60
2023-04-17T02:37:34.259Z,413.80
2023-04-17T02:38:34.285Z,588.40
2023-04-17T02:39:34.253Z,558.50
2023-04-17T02:40:34.224Z,564.70
2023-04-17T02:41:34.201Z,356.20
2023-04-17T02:42:34.215Z,556.00
2023-04-17T02:43:34.222Z,634.00
2023-04-17T02:44:34.187Z,597.90
2023-04-17T02:45:34.177Z,564.00
2023-04-17T02:46:34.179Z,331.00
2023-04-17T02:47:34.178Z,585.80
2023-04-17T02:48:34.181Z,667.00
2023-04-17T02:49:34.137Z,588.60
2023-04-17T02:50:34.125Z,617.30
2023-04-17T02:51:34.115Z,624.40
2023-04-17T02:52:34.081Z,582.70
2023-04-17T02:53:34.139Z,235.50
2023-04-17T02:54:34.076Z,387.70
2023-04-17T02:55:34.056Z,605.60
2023-04-17T02:56:34.045Z,558.50
2023-04-17T02:57:34.050Z,528.50
2023-04-17T02:58:34.074Z,520.40
2023-04-17T02:59:34.010Z,372.50
2023-04-17T03:00:34.017Z,416.10
2023-04-17T03:01:34.134Z,640.60
2023-04-17T03:02:34.140Z,635.10
2023-04-17T03:03:34.161Z,607.90
2023-04-17T03:04:33.937Z,608.90
2023-04-17T03:05:33.955Z,606.70
2023-04-17T03:06:33.941Z,585.90
2023-04-17T03:07:33.939Z,493.90
2023-04-17T03:08:33.936Z,338.90
2023-04-17T03:09:33.909Z,351.70
2023-04-17T03:10:33.876Z,574.30
2023-04-17T03:11:33.876Z,726.60
2023-04-17T03:12:33.861Z,678.90
2023-04-17T03:13:33.841Z,587.50
2023-04-17T03:14:33.888Z,583.70
2023-04-17T03:15:33.832Z,588.40
2023-04-17T03:16:33.856Z,652.50
2023-04-17T03:17:33.808Z,315.50
2023-04-17T03:18:33.791Z,360.00
2023-04-17T03:19:33.816Z,491.50
2023-04-17T03:20:33.779Z,361.10
2023-04-17T03:21:33.760Z,667.90
2023-04-17T03:22:33.755Z,346.40
2023-04-17T03:23:33.765Z,879.40
2023-04-17T03:24:33.763Z,310.10
2023-04-17T03:25:33.778Z,749.70
2023-04-17T03:26:33.702Z,350.10
2023-04-17T03:27:33.702Z,356.10
2023-04-17T03:28:33.674Z,378.70
2023-04-17T03:29:33.709Z,957.40
2023-04-17T03:30:33.670Z,355.80
2023-04-17T03:31:33.656Z,539.90
2023-04-17T03:32:33.658Z,795.90
2023-04-17T03:33:33.610Z,679.80
2023-04-17T03:34:33.637Z,391.40
2023-04-17T03:35:33.597Z,461.20
2023-04-17T03:36:33.580Z,390.90
2023-04-17T03:37:33.601Z,374.90
2023-04-17T03:38:33.564Z,587.80
2023-04-17T03:39:33.585Z,578.60
2023-04-17T03:40:33.837Z,380.30
2023-04-17T03:41:33.547Z,679.10
2023-04-17T03:42:33.518Z,443.60
2023-04-17T03:43:33.518Z,749.00
2023-04-17T03:44:33.606Z,448.30
2023-04-17T03:45:33.524Z,722.20
2023-04-17T03:46:33.464Z,562.90
2023-04-17T03:47:33.523Z,566.00
2023-04-17T03:48:33.454Z,564.40
2023-04-17T03:49:33.474Z,579.60
2023-04-17T03:50:33.439Z,561.80
2023-04-17T03:51:33.420Z,589.50
2023-04-17T03:52:33.426Z,566.90
2023-04-17T03:53:33.403Z,570.20
2023-04-17T03:54:33.422Z,574.90
2023-04-17T03:55:33.395Z,605.50
2023-04-17T03:56:33.378Z,348.10
2023-04-17T03:57:33.323Z,410.80
2023-04-17T03:58:33.318Z,347.10
2023-04-17T03:59:33.359Z,477.80
2023-04-17T04:00:33.311Z,381.90
2023-04-17T04:01:33.289Z,375.30
2023-04-17T04:02:33.351Z,505.60
2023-04-17T04:03:33.510Z,575.50
2023-04-17T04:04:33.544Z,521.90
2023-04-17T04:05:33.268Z,415.70
2023-04-17T04:06:33.228Z,614.90
2023-04-17T04:07:33.234Z,580.60
2023-04-17T04:08:33.198Z,600.30
2023-04-17T04:09:33.226Z,569.80
2023-04-17T04:10:33.184Z,579.40
2023-04-17T04:11:33.195Z,672.00
2023-04-17T04:12:33.166Z,567.30
2023-04-17T04:13:33.150Z,343.30
2023-04-17T04:14:33.181Z,687.50
2023-04-17T04:15:33.138Z,563.80
2023-04-17T04:16:33.191Z,542.20
2023-04-17T04:17:33.165Z,568.20
2023-04-17T04:18:33.103Z,558.60
2023-04-17T04:19:33.122Z,326.60
2023-04-17T04:20:33.077Z,459.60
2023-04-17T04:21:33.044Z,332.10
2023-04-17T04:22:33.038Z,581.80
2023-04-17T04:23:33.035Z,362.40
2023-04-17T04:24:33.041Z,934.90
2023-04-17T04:25:33.028Z,362.00
2023-04-17T04:26:33.008Z,637.40
2023-04-17T04:27:33.062Z,593.00
2023-04-17T04:28:32.981Z,567.10
2023-04-17T04:29:33.017Z,586.80
2023-04-17T04:30:32.950Z,599.20
2023-04-17T04:31:33.007Z,598.90
2023-04-17T04:32:33.076Z,582.00
2023-04-17T04:33:32.929Z,583.80
2023-04-17T04:34:32.945Z,586.70
2023-04-17T04:35:32.926Z,579.00
2023-04-17T04:36:32.873Z,579.40
2023-04-17T04:37:32.880Z,589.20
2023-04-17T04:38:33.265Z,603.00
2023-04-17T04:39:32.892Z,582.20
2023-04-17T04:40:32.852Z,590.00
2023-04-17T04:41:32.822Z,585.30
2023-04-17T04:42:32.955Z,555.60
2023-04-17T04:43:32.807Z,556.10
2023-04-17T04:44:32.809Z,586.70
2023-04-17T04:45:32.804Z,539.10
2023-04-17T04:46:32.819Z,544.50
2023-04-17T04:47:32.791Z,536.00
2023-04-17T04:48:32.754Z,531.10
2023-04-17T04:49:32.730Z,532.20
2023-04-17T04:50:32.793Z,457.90
2023-04-17T04:51:32.711Z,482.20
2023-04-17T04:52:32.706Z,536.80
2023-04-17T04:53:32.690Z,558.70
2023-04-17T04:54:32.700Z,510.60
2023-04-17T04:55:32.697Z,525.50
2023-04-17T04:56:33.092Z,557.40
2023-04-17T04:57:32.640Z,515.70
2023-04-17T04:58:32.624Z,467.40
2023-04-17T04:59:32.630Z,535.50
2023-04-17T05:00:32.660Z,514.70
2023-04-17T05:01:32.700Z,561.20
2023-04-17T05:02:32.682Z,524.60
2023-04-17T05:03:32.756Z,553.80
2023-04-17T05:04:32.685Z,558.00
2023-04-17T05:05:32.569Z,539.90
2023-04-17T05:06:32.568Z,557.90
2023-04-17T05:07:32.544Z,565.90
2023-04-17T05:08:32.540Z,594.00
2023-04-17T05:09:32.505Z,509.90
2023-04-17T05:10:32.668Z,529.50
2023-04-17T05:11:32.477Z,559.50
2023-04-17T05:12:32.470Z,634.60
2023-04-17T05:13:32.472Z,590.00
2023-04-17T05:14:32.442Z,533.20
2023-04-17T05:15:32.483Z,500.30
2023-04-17T05:16:32.469Z,590.10
2023-04-17T05:17:32.448Z,553.20
2023-04-17T05:18:32.411Z,517.50
2023-04-17T05:19:32.373Z,515.70
2023-04-17T05:20:32.415Z,558.70
2023-04-17T05:21:32.400Z,546.40
2023-04-17T05:22:32.357Z,584.70
2023-04-17T05:23:32.368Z,565.50
2023-04-17T05:24:32.323Z,568.90
2023-04-17T05:25:32.371Z,364.40
2023-04-17T05:26:32.310Z,147.90
2023-04-17T05:27:32.308Z,195.00
2023-04-17T05:28:32.294Z,270.50
2023-04-17T05:29:32.292Z,150.20
2023-04-17T05:30:32.291Z,143.20
2023-04-17T05:31:32.297Z,144.90
2023-04-17T05:32:32.276Z,569.30
2023-04-17T05:33:32.225Z,251.90
2023-04-17T05:34:32.205Z,296.50
2023-04-17T05:35:32.260Z,360.70
2023-04-17T05:36:32.185Z,511.00
2023-04-17T05:37:32.196Z,288.10
2023-04-17T05:38:32.171Z,154.30
2023-04-17T05:39:32.158Z,462.40
2023-04-17T05:40:32.184Z,567.80
2023-04-17T05:41:32.144Z,235.90
2023-04-17T05:42:32.134Z,307.20
2023-04-17T05:43:32.143Z,192.40
2023-04-17T05:44:32.103Z,173.10
2023-04-17T05:45:32.154Z,170.50
2023-04-17T05:46:32.087Z,172.10
2023-04-17T05:47:32.099Z,142.10
2023-04-17T05:48:32.048Z,119.40
2023-04-17T05:49:32.052Z,117.90
2023-04-17T05:50:32.084Z,159.00
2023-04-17T05:51:32.007Z,224.00
2023-04-17T05:52:32.016Z,340.30
2023-04-17T05:53:32.022Z,297.80
2023-04-17T05:54:31.999Z,384.00
2023-04-17T05:55:32.019Z,219.10
2023-04-17T05:56:31.965Z,142.70
2023-04-17T05:57:31.958Z,117.00
2023-04-17T05:58:31.944Z,112.40
2023-04-17T05:59:32.047Z,308.40
2023-04-17T06:00:31.903Z,150.40
2023-04-17T06:01:31.954Z,357.10
2023-04-17T06:02:31.980Z,488.90
2023-04-17T06:03:32.091Z,99.80
2023-04-17T06:04:32.101Z,132.60
2023-04-17T06:05:32.014Z,98.20
2023-04-17T06:06:31.906Z,70.30
2023-04-17T06:07:31.845Z,58.90
2023-04-17T06:08:31.849Z,66.50
2023-04-17T06:09:31.830Z,83.00
2023-04-17T06:10:31.826Z,84.80
2023-04-17T06:11:31.860Z,222.00
2023-04-17T06:12:31.814Z,165.80
2023-04-17T06:13:31.785Z,238.30
2023-04-17T06:14:31.770Z,286.60
2023-04-17T06:15:31.744Z,446.80
2023-04-17T06:16:31.830Z,409.60
2023-04-17T06:17:31.806Z,262.90
2023-04-17T06:18:31.725Z,83.90
2023-04-17T06:19:31.704Z,130.20
2023-04-17T06:20:31.692Z,403.00
2023-04-17T06:21:31.732Z,387.90
2023-04-17T06:22:31.694Z,384.70
2023-04-17T06:23:31.690Z,256.50
2023-04-17T06:24:31.637Z,352.00
2023-04-17T06:25:31.625Z,131.70
2023-04-17T06:26:31.686Z,93.00
2023-04-17T06:27:31.602Z,102.60
2023-04-17T06:28:31.614Z,163.10
2023-04-17T06:29:31.608Z,200.60
2023-04-17T06:30:31.579Z,190.00
2023-04-17T06:31:31.761Z,164.80
2023-04-17T06:32:31.604Z,346.00
2023-04-17T06:33:31.545Z,269.60
2023-04-17T06:34:31.534Z,190.10
2023-04-17T06:35:31.522Z,106.10
2023-04-17T06:36:31.542Z,110.70
2023-04-17T06:37:31.496Z,99.50
2023-04-17T06:38:31.495Z,389.00
2023-04-17T06:39:31.463Z,445.10
2023-04-17T06:40:31.472Z,507.10
2023-04-17T06:41:31.481Z,436.40
2023-04-17T06:42:31.429Z,364.10
2023-04-17T06:43:31.410Z,211.90
2023-04-17T06:44:31.413Z,61.10
2023-04-17T06:45:31.390Z,71.80
2023-04-17T06:46:31.496Z,346.60
2023-04-17T06:47:31.409Z,328.10
2023-04-17T06:48:31.372Z,335.90
2023-04-17T06:49:31.352Z,356.50
2023-04-17T06:50:31.382Z,131.60
2023-04-17T06:51:31.354Z,100.60
2023-04-17T06:52:31.336Z,86.60
2023-04-17T06:53:31.300Z,83.70
2023-04-17T06:54:31.346Z,314.80
2023-04-17T06:55:31.279Z,277.80
2023-04-17T06:56:31.328Z,419.20
2023-04-17T06:57:31.253Z,203.90
2023-04-17T06:58:31.262Z,86.40
2023-04-17T06:59:31.246Z,106.90
2023-04-17T07:00:31.243Z,83.00
2023-04-17T07:01:31.220Z,512.60
2023-04-17T07:02:31.482Z,251.70
2023-04-17T07:03:31.350Z,92.40
2023-04-17T07:04:31.220Z,221.00
2023-04-17T07:05:31.180Z,60.30
2023-04-17T07:06:31.171Z,353.00
2023-04-17T07:07:31.191Z,442.60
2023-04-17T07:08:31.136Z,314.70
2023-04-17T07:09:31.136Z,74.20
2023-04-17T07:10:31.118Z,73.20
2023-04-17T07:11:31.103Z,460.30
2023-04-17T07:12:31.135Z,90.80
2023-04-17T07:13:31.077Z,87.60
2023-04-17T07:14:31.071Z,492.80
2023-04-17T07:15:31.063Z,125.20
2023-04-17T07:16:31.105Z,106.50
2023-04-17T07:17:31.091Z,328.40
2023-04-17T07:18:31.034Z,81.70
2023-04-17T07:19:31.006Z,214.20
2023-04-17T07:20:30.994Z,409.50
2023-04-17T07:21:30.988Z,48.50
2023-04-17T07:22:31.035Z,293.80
2023-04-17T07:23:31.021Z,298.30
2023-04-17T07:24:30.956Z,131.40
2023-04-17T07:25:30.973Z,118.00
2023-04-17T07:26:30.952Z,235.90
2023-04-17T07:27:30.966Z,78.40
2023-04-17T07:28:30.899Z,75.70
2023-04-17T07:29:30.898Z,355.70
2023-04-17T07:30:30.876Z,610.40
2023-04-17T07:31:30.909Z,304.40
2023-04-17T07:32:30.929Z,463.10
2023-04-17T07:33:30.848Z,103.10
2023-04-17T07:34:30.857Z,92.90
2023-04-17T07:35:30.811Z,116.00
2023-04-17T07:36:30.796Z,152.00
2023-04-17T07:37:30.839Z,334.40
2023-04-17T07:38:30.786Z,293.20
2023-04-17T07:39:30.811Z,332.20
2023-04-17T07:40:30.766Z,226.90
2023-04-17T07:41:30.755Z,323.20
2023-04-17T07:42:30.830Z,457.70
2023-04-17T07:43:30.719Z,368.80
2023-04-17T07:44:30.731Z,420.40
2023-04-17T07:45:31.529Z,487.50
2023-04-17T07:46:30.774Z,275.70
2023-04-17T07:47:30.773Z,166.00
2023-04-17T07:48:30.659Z,155.70
2023-04-17T07:49:30.677Z,511.90
2023-04-17T07:50:30.638Z,657.00
2023-04-17T07:51:30.631Z,272.60
2023-04-17T07:52:30.670Z,94.10
2023-04-17T07:53:30.601Z,385.10
2023-04-17T07:54:30.603Z,577.30
2023-04-17T07:55:30.574Z,116.90
2023-04-17T07:56:30.565Z,128.70
2023-04-17T07:57:30.624Z,489.90
2023-04-17T07:58:30.557Z,643.80
2023-04-17T07:59:30.562Z,204.20
2023-04-17T08:00:30.548Z,117.00
2023-04-17T08:01:30.506Z,341.20
2023-04-17T08:02:30.621Z,646.80
2023-04-17T08:03:30.670Z,137.50
2023-04-17T08:04:30.600Z,345.40
2023-04-17T08:05:30.538Z,562.80
2023-04-17T08:06:30.467Z,601.90
2023-04-17T08:07:30.488Z,600.00
2023-04-17T08:08:30.441Z,655.90
2023-04-17T08:09:30.437Z,504.50
2023-04-17T08:10:30.423Z,89.60
2023-04-17T08:11:30.421Z,168.00
2023-04-17T08:12:30.461Z,659.30
2023-04-17T08:13:30.413Z,363.20
2023-04-17T08:14:30.362Z,239.30
2023-04-17T08:15:30.348Z,75.00
2023-04-17T08:16:30.414Z,244.70
2023-04-17T08:17:30.388Z,569.90
2023-04-17T08:18:30.337Z,422.20
2023-04-17T08:19:30.309Z,389.80
2023-04-17T08:20:30.309Z,443.30
2023-04-17T08:21:30.293Z,544.90
2023-04-17T08:22:30.333Z,286.00
2023-04-17T08:23:30.253Z,99.70
2023-04-17T08:24:30.240Z,84.80
2023-04-17T08:25:30.264Z,125.60
2023-04-17T08:26:30.264Z,167.60
2023-04-17T08:27:30.284Z,296.30
2023-04-17T08:28:30.231Z,434.40
2023-04-17T08:29:30.211Z,532.60
2023-04-17T08:30:30.255Z,553.50
2023-04-17T08:31:30.226Z,572.30
2023-04-17T08:32:30.224Z,496.00
2023-04-17T08:33:30.155Z,495.30
2023-04-17T08:34:30.175Z,362.20
2023-04-17T08:35:30.139Z,112.80
2023-04-17T08:36:30.125Z,103.60
2023-04-17T08:37:30.139Z,81.60
2023-04-17T08:38:30.092Z,395.00
2023-04-17T08:39:30.090Z,282.20
2023-04-17T08:40:30.093Z,217.20
2023-04-17T08:41:30.069Z,160.60
2023-04-17T08:42:30.090Z,414.50
2023-04-17T08:43:30.052Z,359.00
2023-04-17T08:44:30.038Z,402.10
2023-04-17T08:45:30.005Z,520.40
2023-04-17T08:46:30.031Z,437.40
2023-04-17T08:47:30.058Z,505.00
2023-04-17T08:48:29.998Z,450.50
2023-04-17T08:49:29.969Z,290.30
2023-04-17T08:50:29.962Z,107.60
2023-04-17T08:51:29.940Z,290.20
2023-04-17T08:52:29.975Z,305.70
2023-04-17T08:53:29.916Z,493.80
2023-04-17T08:54:29.902Z,355.30
2023-04-17T08:55:29.925Z,402.30
2023-04-17T08:56:29.879Z,549.90
2023-04-17T08:57:29.907Z,87.20
2023-04-17T08:58:29.900Z,238.20
2023-04-17T08:59:29.859Z,544.80
2023-04-17T09:00:29.881Z,420.30
2023-04-17T09:01:29.917Z,136.80
2023-04-17T09:02:29.969Z,78.20
2023-04-17T09:03:29.880Z,252.30
2023-04-17T09:04:29.850Z,286.80
2023-04-17T09:05:29.765Z,539.00
2023-04-17T09:06:29.771Z,387.80
2023-04-17T09:07:29.774Z,370.10
2023-04-17T09:08:29.797Z,423.00
2023-04-17T09:09:29.732Z,373.20
2023-04-17T09:10:29.712Z,296.50
2023-04-17T09:11:29.737Z,234.20
2023-04-17T09:12:29.715Z,72.00
2023-04-17T09:13:29.736Z,77.80
2023-04-17T09:14:29.688Z,45.30
2023-04-17T09:15:29.670Z,210.00
2023-04-17T09:16:29.714Z,282.30
2023-04-17T09:17:29.667Z,518.50
2023-04-17T09:18:29.655Z,495.00
2023-04-17T09:19:29.634Z,606.30
2023-04-17T09:20:29.601Z,594.70
2023-04-17T09:21:29.599Z,648.60
2023-04-17T09:22:29.595Z,469.70
2023-04-17T09:23:29.666Z,257.10
2023-04-17T09:24:29.570Z,218.00
2023-04-17T09:25:29.570Z,64.40
2023-04-17T09:26:29.604Z,202.40
2023-04-17T09:27:29.562Z,492.80
2023-04-17T09:28:29.580Z,618.10
2023-04-17T09:29:29.538Z,537.50
2023-04-17T09:30:29.492Z,372.00
2023-04-17T09:31:29.500Z,335.60
2023-04-17T09:32:29.467Z,83.20
2023-04-17T09:33:29.512Z,55.20
2023-04-17T09:34:29.471Z,60.40
2023-04-17T09:35:29.467Z,354.10
2023-04-17T09:36:29.480Z,489.80
2023-04-17T09:37:29.428Z,696.70
2023-04-17T09:38:29.443Z,685.20
2023-04-17T09:39:29.404Z,314.10
2023-04-17T09:40:29.366Z,49.20
2023-04-17T09:41:29.392Z,68.10
2023-04-17T09:42:29.362Z,71.40
2023-04-17T09:43:29.395Z,57.60
2023-04-17T09:44:29.343Z,165.90
2023-04-17T09:45:29.327Z,445.70
2023-04-17T09:46:29.340Z,553.60
2023-04-17T09:47:29.325Z,682.40
2023-04-17T09:48:29.334Z,741.20
2023-04-17T09:49:29.300Z,711.10
2023-04-17T09:50:29.290Z,419.60
2023-04-17T09:51:29.269Z,500.30
2023-04-17T09:52:29.237Z,352.90
2023-04-17T09:53:29.274Z,62.80
2023-04-17T09:54:29.226Z,55.00
2023-04-17T09:55:29.247Z,194.40
2023-04-17T09:56:29.220Z,378.10
2023-04-17T09:57:29.247Z,603.10
2023-04-17T09:58:29.204Z,691.70
2023-04-17T09:59:29.144Z,702.50
2023-04-17T10:00:29.182Z,501.60
2023-04-17T10:01:29.171Z,364.20
2023-04-17T10:02:29.279Z,94.10
2023-04-17T10:03:29.329Z,256.30
2023-04-17T10:04:29.174Z,336.70
2023-04-17T10:05:29.282Z,435.50
2023-04-17T10:06:29.059Z,786.80
2023-04-17T10:07:29.080Z,563.80
2023-04-17T10:08:29.105Z,404.50
2023-04-17T10:09:29.068Z,219.80
2023-04-17T10:10:29.024Z,129.00
2023-04-17T10:11:29.028Z,100.10
2023-04-17T10:12:29.025Z,184.50
2023-04-17T10:13:29.053Z,254.30
2023-04-17T10:14:29.061Z,434.90
2023-04-17T10:15:28.980Z,602.10
2023-04-17T10:16:28.991Z,719.30
2023-04-17T10:17:29.135Z,604.20
2023-04-17T10:18:28.997Z,406.90
2023-04-17T10:19:28.954Z,191.90
2023-04-17T10:20:28.921Z,182.60
2023-04-17T10:21:28.924Z,118.40
2023-04-17T10:22:28.919Z,262.20
2023-04-17T10:23:28.928Z,321.60
2023-04-17T10:24:28.859Z,469.50
2023-04-17T10:25:28.888Z,579.10
2023-04-17T10:26:28.853Z,577.40
2023-04-17T10:27:28.850Z,693.10
2023-04-17T10:28:28.814Z,398.20
2023-04-17T10:29:28.837Z,546.40
2023-04-17T10:30:28.797Z,395.80
2023-04-17T10:31:28.844Z,343.30
2023-04-17T10:32:29.096Z,154.20
2023-04-17T10:33:28.780Z,255.60
2023-04-17T10:34:28.801Z,411.70
2023-04-17T10:35:28.761Z,614.50
2023-04-17T10:36:28.727Z,620.10
2023-04-17T10:37:28.718Z,635.20
2023-04-17T10:38:28.721Z,477.90
2023-04-17T10:39:28.758Z,458.90
2023-04-17T10:40:28.699Z,190.00
2023-04-17T10:41:28.684Z,181.30
2023-04-17T10:42:28.694Z,402.60
2023-04-17T10:43:28.686Z,478.60
2023-04-17T10:44:28.699Z,573.00
2023-04-17T10:45:28.666Z,762.70
2023-04-17T10:46:28.734Z,159.60
2023-04-17T10:47:28.659Z,164.40
2023-04-17T10:48:28.628Z,136.00
2023-04-17T10:49:28.623Z,481.90
2023-04-17T10:50:28.575Z,832.60
2023-04-17T10:51:28.577Z,551.90
2023-04-17T10:52:28.562Z,457.30
2023-04-17T10:53:28.568Z,151.50
2023-04-17T10:54:28.561Z,318.20
2023-04-17T10:55:28.496Z,436.00
2023-04-17T10:56:28.500Z,751.10
2023-04-17T10:57:28.494Z,620.10
2023-04-17T10:58:31.553Z,471.20
2023-04-17T10:59:28.537Z,125.90
2023-04-17T11:00:28.449Z,489.90
2023-04-17T11:01:28.977Z,785.30
2023-04-17T11:02:28.507Z,470.10
2023-04-17T11:03:28.498Z,114.20
2023-04-17T11:04:28.538Z,411.10
2023-04-17T11:05:28.406Z,639.70
2023-04-17T11:06:28.398Z,757.30
2023-04-17T11:07:28.362Z,151.80
2023-04-17T11:08:28.365Z,95.30
2023-04-17T11:09:28.396Z,214.80
2023-04-17T11:10:28.362Z,319.10
2023-04-17T11:11:40.503Z,887.80
2023-04-17T11:12:29.323Z,487.50
2023-04-17T11:13:28.310Z,82.60
2023-04-17T11:14:28.348Z,477.30
2023-04-17T11:15:28.313Z,813.10
2023-04-17T11:16:28.388Z,555.90
2023-04-17T11:17:28.315Z,108.50
2023-04-17T11:18:28.276Z,452.20
2023-04-17T11:19:28.300Z,625.30
2023-04-17T11:20:28.270Z,810.70
2023-04-17T11:21:29.059Z,768.90
2023-04-17T11:22:28.233Z,645.80
2023-04-17T11:23:28.189Z,464.50
2023-04-17T11:24:28.458Z,581.30
2023-04-17T11:25:28.164Z,618.90
2023-04-17T11:26:28.179Z,703.90
2023-04-17T11:27:28.167Z,469.70
2023-04-17T11:28:28.220Z,299.90
2023-04-17T11:29:28.194Z,70.90
2023-04-17T11:30:28.132Z,75.70
2023-04-17T11:31:28.111Z,90.50
2023-04-17T11:32:28.139Z,293.40
2023-04-17T11:33:28.074Z,288.90
2023-04-17T11:34:28.165Z,309.90
2023-04-17T11:35:28.074Z,89.10
2023-04-17T11:36:28.058Z,84.60
2023-04-17T11:37:28.037Z,235.40
2023-04-17T11:38:28.072Z,678.20
2023-04-17T11:39:28.062Z,720.00
2023-04-17T11:40:28.017Z,418.30
2023-04-17T11:41:27.993Z,115.10
2023-04-17T11:42:27.999Z,79.50
2023-04-17T11:43:28.005Z,82.30
2023-04-17T11:44:28.025Z,149.20
2023-04-17T11:45:27.970Z,385.60
2023-04-17T11:46:27.990Z,423.90
2023-04-17T11:47:27.964Z,457.00
2023-04-17T11:48:27.916Z,695.70
2023-04-17T11:49:27.953Z,536.40
2023-04-17T11:50:27.933Z,213.90
2023-04-17T11:51:27.892Z,77.40
2023-04-17T11:52:27.862Z,136.90
2023-04-17T11:53:27.851Z,130.50
2023-04-17T11:54:28.033Z,451.40
2023-04-17T11:55:27.846Z,778.50
2023-04-17T11:56:27.935Z,407.80
2023-04-17T11:57:27.815Z,534.70
2023-04-17T11:58:29.525Z,253.90
2023-04-17T11:59:27.833Z,128.00
2023-04-17T12:00:27.763Z,84.20
2023-04-17T12:01:27.762Z,171.60
2023-04-17T12:02:27.866Z,199.30
2023-04-17T12:03:27.976Z,459.90
2023-04-17T12:04:27.959Z,474.50
2023-04-17T12:05:27.868Z,542.20
2023-04-17T12:06:27.709Z,573.50
2023-04-17T12:07:27.690Z,707.70
2023-04-17T12:08:27.663Z,753.10
2023-04-17T12:09:27.709Z,532.40
2023-04-17T12:10:27.662Z,556.10
2023-04-17T12:11:27.657Z,492.00
2023-04-17T12:12:27.635Z,611.10
2023-04-17T12:13:27.666Z,494.50
2023-04-17T12:14:27.681Z,466.70
2023-04-17T12:15:27.609Z,62.50
2023-04-17T12:16:27.654Z,65.90
2023-04-17T12:17:27.629Z,274.50
2023-04-17T12:18:27.558Z,280.70
2023-04-17T12:19:27.612Z,455.20
2023-04-17T12:20:27.545Z,762.00
2023-04-17T12:21:27.524Z,557.30
2023-04-17T12:22:27.511Z,172.40
2023-04-17T12:23:27.509Z,72.10
2023-04-17T12:24:27.605Z,73.40
2023-04-17T12:25:27.524Z,291.10
2023-04-17T12:26:27.482Z,331.50
2023-04-17T12:27:27.472Z,607.30
2023-04-17T12:28:27.475Z,807.30
2023-04-17T12:29:42.324Z,376.50
2023-04-17T12:30:28.475Z,66.80